Time;durP1;ratioP1;P1;durP2;ratioP2;P2;SDS_P1;SDS_P2;PMS_P1;PMS_P2;Temp;Humidity;BMP_temperature;BMP_pressure;BME280_temperature;BME280_humidity;BME280_pressure;Samples;Min_cycle;Max_cycle;Signal;HPM_P1;HPM_P2
2023/06/02 00:01:02;;;;;;;8.90;2.53;;;13.90;91.50;;;;;;5011082;28;20055;-81
2023/06/02 00:03:33;;;;;;;10.70;2.60;;;13.70;91.60;;;;;;5011895;28;20454;-80
2023/06/02 00:06:00;;;;;;;11.60;2.60;;;13.80;91.60;;;;;;5010457;28;20501;-82
2023/06/02 00:08:27;;;;;;;13.38;2.35;;;13.80;91.60;;;;;;5009727;28;20078;-82
2023/06/02 00:10:53;;;;;;;8.60;2.78;;;13.70;91.60;;;;;;5008628;28;20270;-82
2023/06/02 00:13:20;;;;;;;8.93;2.42;;;13.70;91.60;;;;;;5008238;28;20065;-83
2023/06/02 00:15:46;;;;;;;11.43;2.10;;;13.70;91.40;;;;;;5012284;28;20026;-82
2023/06/02 00:18:11;;;;;;;12.82;2.40;;;13.80;91.20;;;;;;5155855;22;20057;-81
2023/06/02 00:20:37;;;;;;;8.20;2.13;;;13.70;91.20;;;;;;5010042;28;20110;-80
2023/06/02 00:23:03;;;;;;;11.57;2.33;;;13.50;91.10;;;;;;5009293;28;20282;-81
2023/06/02 00:25:32;;;;;;;18.25;2.45;;;13.60;91.30;;;;;;5009788;28;20037;-81
2023/06/02 00:27:58;;;;;;;11.00;2.63;;;13.60;91.20;;;;;;5010795;28;20018;-81
2023/06/02 00:30:24;;;;;;;11.40;2.15;;;13.50;91.30;;;;;;5010749;28;20034;-80
2023/06/02 00:32:49;;;;;;;9.93;2.17;;;13.50;91.30;;;;;;5011507;28;20308;-85
2023/06/02 00:35:15;;;;;;;7.00;2.30;;;13.50;91.30;;;;;;5009220;28;20029;-83
2023/06/02 00:37:41;;;;;;;7.65;2.15;;;13.40;91.10;;;;;;5011498;28;20018;-83
2023/06/02 00:40:07;;;;;;;12.50;2.30;;;13.50;91.10;;;;;;5008210;28;20481;-78
2023/06/02 00:42:33;;;;;;;14.23;2.47;;;13.60;91.00;;;;;;5011300;28;20033;-82
2023/06/02 00:44:58;;;;;;;15.15;2.45;;;13.50;91.00;;;;;;5012038;28;20398;-80
2023/06/02 00:47:24;;;;;;;13.25;2.22;;;13.50;91.10;;;;;;5026785;28;20034;-81
2023/06/02 00:49:50;;;;;;;12.05;2.65;;;13.50;91.20;;;;;;5033180;28;20088;-81
2023/06/02 00:52:18;;;;;;;10.23;2.05;;;13.50;91.30;;;;;;5028567;28;20108;-80
2023/06/02 00:54:44;;;;;;;16.25;2.80;;;13.60;91.30;;;;;;5016559;28;20093;-81
2023/06/02 00:57:09;;;;;;;19.95;2.72;;;13.60;91.20;;;;;;5010218;28;20025;-81
2023/06/02 00:59:39;;;;;;;14.02;2.30;;;13.60;91.20;;;;;;5011381;28;20025;-80
2023/06/02 01:02:05;;;;;;;13.10;3.00;;;13.60;91.10;;;;;;5006962;28;20026;-81
2023/06/02 01:04:31;;;;;;;14.75;2.40;;;13.60;91.30;;;;;;5013824;28;20029;-81
2023/06/02 01:07:02;;;;;;;10.75;2.50;;;13.50;91.30;;;;;;5009473;28;20021;-79
2023/06/02 01:09:28;;;;;;;14.15;2.17;;;13.60;91.30;;;;;;5014819;28;20074;-79
2023/06/02 01:11:55;;;;;;;14.02;2.30;;;13.60;91.30;;;;;;5003214;28;20095;-79
2023/06/02 01:14:21;;;;;;;16.70;3.38;;;13.70;91.40;;;;;;5006609;28;20022;-79
2023/06/02 01:16:49;;;;;;;13.05;2.63;;;13.70;91.30;;;;;;5008991;28;20021;-79
2023/06/02 01:19:20;;;;;;;8.75;2.47;;;13.70;91.30;;;;;;5012229;28;20088;-81
2023/06/02 01:21:57;;;;;;;13.93;2.70;;;13.70;91.20;;;;;;5011772;28;20041;-79
2023/06/02 01:24:30;;;;;;;18.10;2.40;;;13.70;91.30;;;;;;5010125;28;20018;-79
2023/06/02 01:26:56;;;;;;;11.88;2.38;;;13.70;91.30;;;;;;5006925;28;20617;-79
2023/06/02 01:29:21;;;;;;;9.27;2.10;;;13.70;91.40;;;;;;5013304;28;20117;-79
2023/06/02 01:31:52;;;;;;;13.75;2.67;;;13.70;91.50;;;;;;5015359;28;20028;-81
2023/06/02 01:34:46;;;;;;;16.98;2.85;;;13.70;91.50;;;;;;5015597;28;20033;-81
2023/06/02 01:37:13;;;;;;;15.35;2.78;;;13.70;91.50;;;;;;5009174;28;20021;-81
2023/06/02 01:39:41;;;;;;;22.60;2.90;;;13.80;91.40;;;;;;5007671;28;20104;-82
2023/06/02 01:42:08;;;;;;;16.45;2.83;;;13.80;91.50;;;;;;5010090;28;20415;-81
2023/06/02 01:44:35;;;;;;;18.23;2.65;;;13.70;91.60;;;;;;5014991;28;20608;-81
2023/06/02 01:47:02;;;;;;;20.00;3.05;;;13.80;91.60;;;;;;5009484;28;20029;-82
2023/06/02 01:49:27;;;;;;;11.65;2.97;;;13.80;91.60;;;;;;5011468;28;20029;-81
2023/06/02 01:51:54;;;;;;;13.65;2.97;;;13.80;91.50;;;;;;5008265;28;20044;-79
2023/06/02 01:54:22;;;;;;;11.00;2.95;;;13.80;91.60;;;;;;5006110;28;20367;-78
2023/06/02 01:56:47;;;;;;;22.50;3.00;;;13.70;91.30;;;;;;5005228;28;20033;-79
2023/06/02 01:59:13;;;;;;;21.42;3.67;;;13.60;91.50;;;;;;5011479;28;20022;-82
2023/06/02 02:01:40;;;;;;;14.00;2.83;;;13.60;91.50;;;;;;5014447;28;20108;-81
2023/06/02 02:04:06;;;;;;;12.90;2.53;;;13.60;91.50;;;;;;5146147;22;20421;-82
2023/06/02 02:06:32;;;;;;;18.67;2.58;;;13.50;91.80;;;;;;5007956;28;20022;-82
2023/06/02 02:08:59;;;;;;;17.83;2.97;;;13.40;91.80;;;;;;5010532;28;20080;-83
2023/06/02 02:11:27;;;;;;;10.45;2.63;;;13.50;91.90;;;;;;5009287;28;20254;-81
2023/06/02 02:13:53;;;;;;;14.02;2.60;;;13.40;91.80;;;;;;5013353;28;20205;-79
2023/06/02 02:16:21;;;;;;;15.40;2.45;;;13.40;91.80;;;;;;5006401;28;20083;-81
2023/06/02 02:18:47;;;;;;;13.48;3.03;;;13.40;91.90;;;;;;5009070;28;20441;-79
2023/06/02 02:21:13;;;;;;;12.05;2.72;;;13.40;92.00;;;;;;5008116;28;20033;-80
2023/06/02 02:23:39;;;;;;;12.07;2.53;;;13.50;91.90;;;;;;5008144;28;20022;-81
2023/06/02 02:26:06;;;;;;;14.00;2.95;;;13.60;91.90;;;;;;5005922;28;20021;-80
2023/06/02 02:28:31;;;;;;;14.50;3.10;;;13.60;92.00;;;;;;5012154;28;20036;-80
2023/06/02 02:30:59;;;;;;;16.13;2.90;;;13.60;92.00;;;;;;5021298;28;20209;-83
2023/06/02 02:33:25;;;;;;;21.08;3.42;;;13.60;92.10;;;;;;5032975;28;20156;-82
2023/06/02 02:35:53;;;;;;;20.73;3.20;;;13.50;92.20;;;;;;5031884;28;20030;-83
2023/06/02 02:38:23;;;;;;;13.00;2.67;;;13.60;92.30;;;;;;5019539;28;20163;-84
2023/06/02 02:40:49;;;;;;;18.25;2.88;;;13.40;92.20;;;;;;5009953;28;20468;-84
2023/06/02 02:43:15;;;;;;;20.13;2.75;;;13.50;92.30;;;;;;5017055;28;20140;-83
2023/06/02 02:45:41;;;;;;;13.95;2.88;;;13.40;92.30;;;;;;5006891;28;20068;-82
2023/06/02 02:48:07;;;;;;;13.88;2.90;;;13.40;92.30;;;;;;5010195;28;20017;-80
2023/06/02 02:50:33;;;;;;;10.75;2.97;;;13.40;92.10;;;;;;5010075;28;20079;-84
2023/06/02 02:52:59;;;;;;;13.18;2.60;;;13.30;92.20;;;;;;5015821;28;20490;-83
2023/06/02 02:55:25;;;;;;;18.75;2.83;;;13.10;92.60;;;;;;5020324;28;20036;-83
2023/06/02 02:57:53;;;;;;;19.42;3.35;;;13.20;92.20;;;;;;5017092;28;20465;-83
2023/06/02 03:00:19;;;;;;;12.73;3.33;;;13.20;92.20;;;;;;5010276;28;20060;-83
2023/06/02 03:02:44;;;;;;;21.85;3.72;;;13.10;92.20;;;;;;5006755;28;20092;-84
2023/06/02 03:05:13;;;;;;;18.95;3.42;;;13.10;92.30;;;;;;5010472;28;20105;-83
2023/06/02 03:07:39;;;;;;;11.15;2.70;;;13.10;92.30;;;;;;5011996;28;20083;-81
2023/06/02 03:10:06;;;;;;;8.25;3.08;;;13.10;92.30;;;;;;5005977;28;20061;-80
2023/06/02 03:12:32;;;;;;;15.30;2.92;;;13.10;92.30;;;;;;5008336;28;20196;-80
2023/06/02 03:14:59;;;;;;;9.55;3.03;;;13.20;92.30;;;;;;5009256;28;20014;-83
2023/06/02 03:17:27;;;;;;;12.15;3.13;;;13.20;92.30;;;;;;5010359;28;20291;-83
2023/06/02 03:19:56;;;;;;;18.52;2.95;;;13.20;92.30;;;;;;5013428;28;20435;-83
2023/06/02 03:22:22;;;;;;;14.75;2.85;;;13.20;92.10;;;;;;5027518;28;20076;-81
2023/06/02 03:24:48;;;;;;;10.82;3.08;;;13.10;92.10;;;;;;5030101;28;20037;-81
2023/06/02 03:27:15;;;;;;;13.73;3.30;;;13.20;92.00;;;;;;5022483;28;20076;-82
2023/06/02 03:29:41;;;;;;;9.73;2.50;;;13.10;92.10;;;;;;5012802;28;20041;-82
2023/06/02 03:32:11;;;;;;;13.02;2.55;;;13.10;92.00;;;;;;5009570;28;20049;-83
2023/06/02 03:34:39;;;;;;;14.13;2.60;;;13.20;91.80;;;;;;5017792;28;20029;-82
2023/06/02 03:37:08;;;;;;;15.85;2.90;;;13.30;91.80;;;;;;5015857;28;20089;-82
2023/06/02 03:39:33;;;;;;;9.75;2.38;;;13.30;91.80;;;;;;5017636;28;20051;-83
2023/06/02 03:41:59;;;;;;;14.15;3.10;;;13.30;91.90;;;;;;5136581;22;20026;-80
2023/06/02 03:44:25;;;;;;;9.50;2.92;;;13.30;92.00;;;;;;5008760;28;20038;-82
2023/06/02 03:46:50;;;;;;;20.10;3.22;;;13.10;92.10;;;;;;5012085;28;20072;-79
2023/06/02 03:49:16;;;;;;;13.60;2.90;;;13.20;92.10;;;;;;5012691;28;20092;-79
2023/06/02 03:51:43;;;;;;;9.18;2.75;;;13.10;92.00;;;;;;5011176;28;20296;-80
2023/06/02 03:54:09;;;;;;;9.70;2.80;;;13.10;92.20;;;;;;5015310;28;20040;-79
2023/06/02 03:56:34;;;;;;;12.35;3.13;;;13.20;92.40;;;;;;5017688;28;20030;-80
2023/06/02 03:59:00;;;;;;;11.73;2.70;;;13.10;92.20;;;;;;5012234;28;20056;-81
2023/06/02 04:01:26;;;;;;;10.98;2.72;;;13.10;92.40;;;;;;5014633;28;20018;-80
2023/06/02 04:03:52;;;;;;;16.83;2.97;;;13.00;92.40;;;;;;5014638;28;20026;-84
2023/06/02 04:06:17;;;;;;;8.07;2.45;;;13.00;92.30;;;;;;5014452;28;20139;-81
2023/06/02 04:08:43;;;;;;;19.65;2.97;;;13.00;92.40;;;;;;5012715;28;20025;-80
2023/06/02 04:11:09;;;;;;;12.10;3.00;;;12.90;92.50;;;;;;5019133;28;20521;-81
2023/06/02 04:13:35;;;;;;;19.67;2.67;;;12.90;92.50;;;;;;5015027;28;20122;-81
2023/06/02 04:16:00;;;;;;;10.88;3.00;;;13.10;92.60;;;;;;5010477;28;20468;-81
2023/06/02 04:18:27;;;;;;;12.00;2.92;;;13.10;92.60;;;;;;5011174;28;21013;-80
2023/06/02 04:20:53;;;;;;;12.52;2.65;;;13.20;92.50;;;;;;5013079;28;20104;-81
2023/06/02 04:23:18;;;;;;;15.45;2.80;;;13.10;92.30;;;;;;5150625;22;20140;-80
2023/06/02 04:25:44;;;;;;;14.32;2.30;;;13.00;92.30;;;;;;5014556;28;20025;-79
2023/06/02 04:28:12;;;;;;;12.55;2.75;;;13.10;92.40;;;;;;5012450;28;20030;-79
2023/06/02 04:30:39;;;;;;;14.45;2.67;;;13.10;92.40;;;;;;5147511;22;20529;-83
2023/06/02 04:33:05;;;;;;;16.00;2.58;;;13.10;92.30;;;;;;5015940;28;20029;-80
2023/06/02 04:35:30;;;;;;;12.48;2.75;;;13.10;92.10;;;;;;5011606;28;20069;-82
2023/06/02 04:37:56;;;;;;;16.10;2.45;;;13.10;91.90;;;;;;5012720;28;20021;-82
2023/06/02 04:40:22;;;;;;;10.85;2.42;;;13.20;91.90;;;;;;5012471;28;20021;-81
2023/06/02 04:42:48;;;;;;;11.52;2.28;;;13.10;92.00;;;;;;5010403;28;20041;-81
2023/06/02 04:45:16;;;;;;;11.73;2.15;;;13.10;91.90;;;;;;5012474;28;20048;-81
2023/06/02 04:47:42;;;;;;;15.15;2.22;;;13.10;92.10;;;;;;5013761;28;20059;-81
2023/06/02 04:50:12;;;;;;;13.07;2.42;;;13.10;92.00;;;;;;5017306;28;20029;-80
2023/06/02 04:52:38;;;;;;;14.23;2.67;;;13.10;91.90;;;;;;5018153;28;20041;-81
2023/06/02 04:55:07;;;;;;;11.55;2.20;;;13.10;91.90;;;;;;5012624;28;20641;-81
2023/06/02 04:57:32;;;;;;;18.50;2.50;;;13.10;92.00;;;;;;5010383;28;20119;-82
2023/06/02 04:59:58;;;;;;;14.25;2.85;;;13.10;92.10;;;;;;5013980;28;20029;-82
2023/06/02 05:02:24;;;;;;;11.35;2.13;;;13.10;92.10;;;;;;5015386;28;20132;-83
2023/06/02 05:04:50;;;;;;;10.57;2.08;;;13.10;91.90;;;;;;5040280;28;20075;-81
2023/06/02 05:07:16;;;;;;;9.88;2.63;;;13.20;92.00;;;;;;5010337;28;20042;-81
2023/06/02 05:09:41;;;;;;;20.77;2.72;;;13.20;92.00;;;;;;5014335;28;20067;-80
2023/06/02 05:12:09;;;;;;;11.02;2.92;;;13.30;92.10;;;;;;5010531;28;20499;-80
2023/06/02 05:14:36;;;;;;;9.00;2.60;;;13.20;92.00;;;;;;5001002;28;20053;-80
2023/06/02 05:17:02;;;;;;;9.02;2.22;;;13.30;92.00;;;;;;5016662;28;20069;-81
2023/06/02 05:19:27;;;;;;;6.70;2.35;;;13.30;91.80;;;;;;5007588;28;20101;-80
2023/06/02 05:21:53;;;;;;;15.77;2.75;;;13.20;91.90;;;;;;5017225;28;20028;-81
2023/06/02 05:24:19;;;;;;;9.90;2.40;;;13.30;91.90;;;;;;5011180;28;20432;-80
2023/06/02 05:26:45;;;;;;;10.18;2.13;;;13.30;91.80;;;;;;5006700;28;20095;-81
2023/06/02 05:29:12;;;;;;;12.60;2.08;;;13.30;91.70;;;;;;5007188;28;20121;-79
2023/06/02 05:31:38;;;;;;;8.30;2.35;;;13.30;91.90;;;;;;5008664;28;20397;-80
2023/06/02 05:34:03;;;;;;;18.23;2.63;;;13.20;92.00;;;;;;5009142;28;20068;-80
2023/06/02 05:36:29;;;;;;;10.20;2.67;;;13.30;91.90;;;;;;5006481;28;20097;-82
2023/06/02 05:38:55;;;;;;;8.18;2.33;;;13.30;91.80;;;;;;5006795;28;20126;-80
2023/06/02 05:41:21;;;;;;;22.77;2.55;;;13.40;91.70;;;;;;5011439;28;20120;-78
2023/06/02 05:43:46;;;;;;;11.98;2.22;;;13.50;91.60;;;;;;5010173;28;20029;-81
2023/06/02 05:46:12;;;;;;;12.85;2.05;;;13.50;91.60;;;;;;5008459;28;20033;-80
2023/06/02 05:48:40;;;;;;;10.75;2.35;;;13.60;91.50;;;;;;5016525;28;20076;-82
2023/06/02 05:51:06;;;;;;;17.40;2.22;;;13.60;91.50;;;;;;5031176;28;20026;-85
2023/06/02 05:53:34;;;;;;;13.85;2.63;;;13.60;91.20;;;;;;5020427;28;20113;-80
2023/06/02 05:56:00;;;;;;;16.35;2.08;;;13.60;91.30;;;;;;5007212;28;20378;-80
2023/06/02 05:58:28;;;;;;;18.00;2.78;;;13.70;91.10;;;;;;5015487;28;20041;-79
2023/06/02 06:00:53;;;;;;;14.25;2.97;;;13.70;90.90;;;;;;5010882;28;20123;-79
2023/06/02 06:03:19;;;;;;;14.73;2.72;;;13.70;91.00;;;;;;5015558;28;20493;-79
2023/06/02 06:05:45;;;;;;;14.90;2.38;;;13.70;91.10;;;;;;5007687;28;20505;-80
2023/06/02 06:08:10;;;;;;;19.27;2.40;;;13.70;90.90;;;;;;5011021;28;20029;-85
2023/06/02 06:10:36;;;;;;;18.45;3.60;;;13.70;91.00;;;;;;5009713;28;20017;-82
2023/06/02 06:13:01;;;;;;;12.68;2.20;;;13.60;90.90;;;;;;5012281;28;20045;-81
2023/06/02 06:15:27;;;;;;;18.45;2.72;;;13.80;91.10;;;;;;5012830;28;20695;-82
2023/06/02 06:17:53;;;;;;;14.52;2.97;;;13.90;90.80;;;;;;5015118;28;20042;-81
2023/06/02 06:20:20;;;;;;;10.88;2.45;;;13.90;90.80;;;;;;5006280;28;20160;-79
2023/06/02 06:22:46;;;;;;;10.27;2.22;;;13.90;90.70;;;;;;5009463;28;20088;-79
2023/06/02 06:25:12;;;;;;;14.38;2.38;;;14.00;90.50;;;;;;5006943;28;20625;-83
2023/06/02 06:27:39;;;;;;;251.50;91.38;;;14.30;90.40;;;;;;5006028;28;20037;-81
2023/06/02 06:30:06;;;;;;;14.20;3.47;;;14.30;90.20;;;;;;5009048;28;20088;-81
2023/06/02 06:32:32;;;;;;;14.38;2.65;;;14.30;89.80;;;;;;5006968;28;20085;-79
2023/06/02 06:34:59;;;;;;;6.00;2.28;;;14.30;89.40;;;;;;5010515;28;20408;-79
2023/06/02 06:37:27;;;;;;;14.80;2.03;;;14.40;89.30;;;;;;5010009;28;20581;-80
2023/06/02 06:39:53;;;;;;;8.07;2.40;;;14.50;88.70;;;;;;5009771;28;20021;-80
2023/06/02 06:42:19;;;;;;;13.27;3.10;;;14.40;88.60;;;;;;5007919;28;20057;-80
2023/06/02 06:44:44;;;;;;;14.18;2.55;;;14.50;88.70;;;;;;5005800;28;20045;-80
2023/06/02 06:47:10;;;;;;;16.55;2.30;;;14.70;88.20;;;;;;5007584;28;20022;-80
2023/06/02 06:49:36;;;;;;;13.18;2.78;;;14.80;88.00;;;;;;5009160;28;20755;-82
2023/06/02 06:52:01;;;;;;;11.65;2.45;;;14.90;87.80;;;;;;5017754;28;20442;-81
2023/06/02 06:54:27;;;;;;;15.40;2.33;;;14.90;87.10;;;;;;5008700;28;20022;-81
2023/06/02 06:56:53;;;;;;;10.05;2.50;;;15.10;87.90;;;;;;5008672;28;20049;-81
2023/06/02 06:59:18;;;;;;;17.65;2.88;;;15.30;86.50;;;;;;5010027;28;20065;-80
2023/06/02 07:01:46;;;;;;;18.77;4.30;;;15.20;86.10;;;;;;5007761;28;20358;-81
2023/06/02 07:04:12;;;;;;;8.18;2.58;;;15.40;86.50;;;;;;5009968;28;20418;-83
2023/06/02 07:06:37;;;;;;;15.27;2.90;;;15.60;85.30;;;;;;5009409;28;20056;-82
2023/06/02 07:09:03;;;;;;;9.63;2.60;;;15.50;85.10;;;;;;5007376;28;20053;-81
2023/06/02 07:11:29;;;;;;;17.63;2.58;;;15.50;85.40;;;;;;5015124;28;20145;-82
2023/06/02 07:13:55;;;;;;;9.23;2.33;;;15.50;85.40;;;;;;5015306;28;20128;-82
2023/06/02 07:16:21;;;;;;;14.63;2.75;;;15.60;85.40;;;;;;5017722;28;20037;-82
2023/06/02 07:18:47;;;;;;;10.55;2.92;;;15.50;85.40;;;;;;5019600;28;20018;-81
2023/06/02 07:21:13;;;;;;;14.63;2.33;;;15.60;85.80;;;;;;5009701;28;20240;-82
2023/06/02 07:23:39;;;;;;;17.42;2.58;;;15.70;85.80;;;;;;5006360;28;20567;-81
2023/06/02 07:26:04;;;;;;;12.77;2.15;;;15.70;85.60;;;;;;5013390;28;20057;-81
2023/06/02 07:28:30;;;;;;;99.57;31.90;;;15.80;85.80;;;;;;5007911;28;20557;-79
2023/06/02 07:30:56;;;;;;;16.92;3.70;;;15.70;86.20;;;;;;5009592;28;20075;-82
2023/06/02 07:33:22;;;;;;;11.48;2.17;;;15.70;86.70;;;;;;5005751;28;20038;-82
2023/06/02 07:35:48;;;;;;;10.60;2.55;;;15.80;86.40;;;;;;5004499;28;20025;-79
2023/06/02 07:38:13;;;;;;;24.88;2.58;;;15.80;86.20;;;;;;5005635;28;20383;-82
2023/06/02 07:40:39;;;;;;;139.32;48.15;;;15.70;85.80;;;;;;5010674;28;20337;-79
2023/06/02 07:43:05;;;;;;;11.43;2.78;;;15.90;86.40;;;;;;5004779;28;20033;-80
2023/06/02 07:45:33;;;;;;;8.48;2.13;;;16.10;86.40;;;;;;5013556;28;20377;-79
2023/06/02 07:47:58;;;;;;;20.55;3.08;;;16.30;86.30;;;;;;5007016;28;20116;-79
2023/06/02 07:50:24;;;;;;;14.18;2.53;;;16.20;85.20;;;;;;5013417;28;20117;-80
2023/06/02 07:52:50;;;;;;;14.48;2.42;;;16.30;84.70;;;;;;5006977;28;20044;-80
2023/06/02 07:55:18;;;;;;;7.80;2.33;;;16.20;85.00;;;;;;5014901;28;20116;-81
2023/06/02 07:57:44;;;;;;;19.30;3.42;;;16.30;85.40;;;;;;5006564;28;20458;-81
2023/06/02 08:00:17;;;;;;;10.05;3.10;;;16.40;84.90;;;;;;5008532;28;20041;-81
2023/06/02 08:02:46;;;;;;;8.85;2.42;;;16.40;85.30;;;;;;5013032;28;20025;-80
2023/06/02 08:05:15;;;;;;;11.68;2.45;;;16.60;84.80;;;;;;5009768;28;20036;-79
2023/06/02 08:07:41;;;;;;;14.57;3.35;;;16.50;85.10;;;;;;5010566;28;20052;-80
2023/06/02 08:10:10;;;;;;;16.05;2.75;;;16.60;85.10;;;;;;5011497;28;20017;-79
2023/06/02 08:12:35;;;;;;;10.75;2.65;;;16.80;84.60;;;;;;5010607;28;20511;-82
2023/06/02 08:15:02;;;;;;;5.10;1.83;;;17.00;84.50;;;;;;5010646;28;20018;-79
2023/06/02 08:17:30;;;;;;;12.32;2.65;;;17.10;83.90;;;;;;5007472;28;20052;-79
2023/06/02 08:19:57;;;;;;;13.75;2.25;;;17.10;83.60;;;;;;5009020;28;20022;-79
2023/06/02 08:22:25;;;;;;;16.90;2.92;;;17.20;84.00;;;;;;5008653;28;20022;-79
2023/06/02 08:24:52;;;;;;;13.68;2.72;;;17.20;83.60;;;;;;5010090;28;20097;-81
2023/06/02 08:27:20;;;;;;;16.90;3.80;;;17.20;84.30;;;;;;5006896;28;20029;-80
2023/06/02 08:29:46;;;;;;;11.90;2.40;;;17.30;83.90;;;;;;5009162;28;20123;-79
2023/06/02 08:32:12;;;;;;;14.05;3.22;;;17.30;83.80;;;;;;5009764;28;20049;-79
2023/06/02 08:34:41;;;;;;;16.42;2.83;;;17.20;84.40;;;;;;5016724;28;20620;-81
2023/06/02 08:37:09;;;;;;;9.48;2.78;;;17.20;84.60;;;;;;5014905;28;20083;-81
2023/06/02 08:39:35;;;;;;;19.20;3.50;;;17.30;84.60;;;;;;5012865;28;20025;-80
2023/06/02 08:42:01;;;;;;;8.88;2.67;;;17.30;84.30;;;;;;5016529;28;20033;-79
2023/06/02 08:44:30;;;;;;;9.88;2.38;;;17.30;84.60;;;;;;5023488;28;20029;-79
2023/06/02 08:46:57;;;;;;;12.75;2.67;;;17.30;85.50;;;;;;5009602;28;20109;-79
2023/06/02 08:49:24;;;;;;;13.13;2.70;;;17.40;84.80;;;;;;5009217;28;20021;-79
2023/06/02 08:51:55;;;;;;;16.92;3.60;;;17.40;84.60;;;;;;5009031;28;20530;-78
2023/06/02 08:54:21;;;;;;;9.50;2.67;;;17.30;85.10;;;;;;5006411;28;20030;-80
2023/06/02 08:56:49;;;;;;;16.48;5.22;;;17.20;85.50;;;;;;5007672;28;20488;-79
2023/06/02 08:59:19;;;;;;;18.10;3.28;;;17.20;85.90;;;;;;5010273;28;20036;-80
2023/06/02 09:01:48;;;;;;;13.05;3.13;;;17.30;86.20;;;;;;5007105;28;20036;-79
2023/06/02 09:04:14;;;;;;;14.40;3.00;;;17.10;85.80;;;;;;5015685;28;20516;-80
2023/06/02 09:06:43;;;;;;;17.77;3.20;;;17.20;86.40;;;;;;5011540;28;20026;-80
2023/06/02 09:09:09;;;;;;;21.70;3.08;;;17.40;85.80;;;;;;5008471;28;20153;-80
2023/06/02 09:11:35;;;;;;;12.73;2.92;;;17.20;85.70;;;;;;5009533;28;20110;-79
2023/06/02 09:14:17;;;;;;;15.68;3.28;;;17.30;86.30;;;;;;5007914;28;20493;-80
2023/06/02 09:16:43;;;;;;;10.63;2.65;;;17.30;86.60;;;;;;5009285;28;20025;-79
2023/06/02 09:19:14;;;;;;;12.05;2.65;;;17.40;85.90;;;;;;5009698;28;20040;-79
2023/06/02 09:21:42;;;;;;;14.77;2.75;;;17.40;85.90;;;;;;5017283;28;20048;-80
2023/06/02 09:24:08;;;;;;;14.52;3.05;;;17.60;85.90;;;;;;5009891;28;20535;-81
2023/06/02 09:26:34;;;;;;;15.38;2.80;;;17.50;86.20;;;;;;5021586;28;20026;-79
2023/06/02 09:29:00;;;;;;;17.65;2.90;;;17.50;85.80;;;;;;5010270;28;20040;-78
2023/06/02 09:31:28;;;;;;;11.23;2.47;;;17.50;85.80;;;;;;5008895;28;20046;-79
2023/06/02 09:34:02;;;;;;;11.50;2.83;;;17.70;86.10;;;;;;5014812;28;20037;-79
2023/06/02 09:36:29;;;;;;;18.33;2.75;;;17.80;85.00;;;;;;5008302;28;20033;-81
2023/06/02 09:38:56;;;;;;;12.05;3.33;;;17.90;84.90;;;;;;5009319;28;20084;-81
2023/06/02 09:41:22;;;;;;;11.45;2.67;;;18.00;84.80;;;;;;5011076;28;20560;-79
2023/06/02 09:43:48;;;;;;;19.75;3.03;;;18.20;84.70;;;;;;5004751;28;20619;-82
2023/06/02 09:46:17;;;;;;;16.95;2.67;;;18.40;83.70;;;;;;5020808;28;20022;-82
2023/06/02 09:48:56;;;;;;;18.50;3.08;;;18.50;84.30;;;;;;5010548;28;20109;-80
2023/06/02 09:51:23;;;;;;;17.88;3.60;;;18.50;84.10;;;;;;5008894;28;20030;-81
2023/06/02 09:53:50;;;;;;;7.55;2.30;;;18.80;83.40;;;;;;5009529;28;20042;-80
2023/06/02 09:56:21;;;;;;;15.05;3.00;;;18.70;82.90;;;;;;5006433;28;20105;-79
2023/06/02 09:58:46;;;;;;;9.93;3.08;;;19.00;82.20;;;;;;5009310;28;20032;-79
2023/06/02 10:01:13;;;;;;;14.95;3.08;;;19.10;82.20;;;;;;5012418;28;20030;-79
2023/06/02 10:03:45;;;;;;;14.15;3.35;;;18.90;82.00;;;;;;5005367;28;20102;-80
2023/06/02 10:06:25;;;;;;;12.55;2.90;;;19.10;82.00;;;;;;5005345;28;20042;-82
2023/06/02 10:09:16;;;;;;;13.00;3.00;;;19.20;81.10;;;;;;5006049;28;20038;-78
2023/06/02 10:12:00;;;;;;;21.30;3.90;;;19.40;81.60;;;;;;5008465;28;20022;-77
2023/06/02 10:14:29;;;;;;;14.90;3.97;;;19.40;81.20;;;;;;5003716;28;20026;-75
2023/06/02 10:17:27;;;;;;;16.35;3.33;;;19.40;81.80;;;;;;5009936;28;20025;-79
2023/06/02 10:19:58;;;;;;;12.88;3.20;;;19.60;80.70;;;;;;5004935;28;20257;-79
2023/06/02 10:22:27;;;;;;;11.65;2.70;;;19.80;79.80;;;;;;5009075;28;20033;-80
2023/06/02 10:25:02;;;;;;;14.70;3.05;;;20.00;79.80;;;;;;5008445;28;20029;-79
2023/06/02 10:27:32;;;;;;;13.18;3.20;;;20.10;79.80;;;;;;5012214;28;20025;-80
2023/06/02 10:30:00;;;;;;;13.95;3.05;;;20.30;79.30;;;;;;5006574;28;20298;-80
2023/06/02 10:32:33;;;;;;;17.35;3.03;;;20.40;79.50;;;;;;5008021;28;20560;-79
2023/06/02 10:35:02;;;;;;;12.75;3.13;;;20.40;78.50;;;;;;5004596;28;20189;-79
2023/06/02 10:37:28;;;;;;;15.75;3.17;;;20.20;78.20;;;;;;5002769;28;20091;-81
2023/06/02 10:39:56;;;;;;;12.15;3.03;;;20.10;79.10;;;;;;5011167;28;20430;-79
2023/06/02 10:42:24;;;;;;;16.55;3.28;;;20.30;79.10;;;;;;5007017;28;20025;-80
2023/06/02 10:44:52;;;;;;;12.48;3.50;;;20.50;78.30;;;;;;5007966;28;20014;-79
2023/06/02 10:47:17;;;;;;;11.60;3.25;;;20.60;78.90;;;;;;5014052;28;20048;-79
2023/06/02 10:50:05;;;;;;;17.23;3.20;;;21.10;77.30;;;;;;5008438;28;20052;-79
2023/06/02 10:52:54;;;;;;;9.45;2.80;;;20.80;77.10;;;;;;5128184;22;20502;-79
2023/06/02 10:55:22;;;;;;;13.55;3.90;;;20.70;78.00;;;;;;5011309;28;20022;-81
2023/06/02 10:58:08;;;;;;;14.23;3.38;;;20.70;77.80;;;;;;5007109;28;20030;-80
2023/06/02 11:00:39;;;;;;;13.35;3.53;;;20.70;77.90;;;;;;5006797;28;20260;-80
2023/06/02 11:03:22;;;;;;;16.70;3.40;;;21.00;78.20;;;;;;5006789;28;20018;-80
2023/06/02 11:05:54;;;;;;;9.15;3.33;;;20.80;76.90;;;;;;5007497;28;21114;-80
2023/06/02 11:08:22;;;;;;;14.88;3.50;;;21.20;76.80;;;;;;5012511;28;20076;-81
2023/06/02 11:10:58;;;;;;;13.05;3.28;;;21.20;76.60;;;;;;5005408;28;20625;-80
2023/06/02 11:13:27;;;;;;;14.82;3.15;;;21.10;77.20;;;;;;5007467;28;20041;-80
2023/06/02 11:15:59;;;;;;;18.40;3.42;;;21.00;76.80;;;;;;5003681;28;20447;-80
2023/06/02 11:18:27;;;;;;;12.23;3.38;;;20.80;77.30;;;;;;5007492;28;20295;-81
2023/06/02 11:20:57;;;;;;;13.18;3.40;;;21.00;77.40;;;;;;5012956;28;20508;-81
2023/06/02 11:23:23;;;;;;;15.57;3.28;;;21.00;76.90;;;;;;5014147;28;20393;-79
2023/06/02 11:26:02;;;;;;;14.80;3.47;;;21.10;77.20;;;;;;5005953;28;20037;-80
2023/06/02 11:28:28;;;;;;;18.30;4.15;;;21.10;77.30;;;;;;5010867;28;20080;-80
2023/06/02 11:31:14;;;;;;;13.00;3.22;;;21.30;77.50;;;;;;5012962;28;20025;-80
2023/06/02 11:33:51;;;;;;;14.82;3.20;;;21.50;76.20;;;;;;5012747;28;20160;-80
2023/06/02 11:36:30;;;;;;;18.85;5.57;;;21.70;76.00;;;;;;5009549;28;20617;-78
2023/06/02 11:39:03;;;;;;;11.00;3.10;;;21.60;75.70;;;;;;5012729;28;20025;-80
2023/06/02 11:41:29;;;;;;;13.02;3.50;;;21.60;76.30;;;;;;5005885;28;20021;-79
2023/06/02 11:44:04;;;;;;;18.88;3.33;;;21.70;76.10;;;;;;5010331;28;20064;-81
2023/06/02 11:46:30;;;;;;;11.23;2.97;;;22.00;76.80;;;;;;5009960;28;20040;-79
2023/06/02 11:48:55;;;;;;;13.10;3.38;;;22.30;75.10;;;;;;5010261;28;20121;-81
2023/06/02 11:51:22;;;;;;;12.77;3.65;;;22.20;74.90;;;;;;5007322;28;20410;-80
2023/06/02 11:54:08;;;;;;;13.63;3.35;;;22.30;75.30;;;;;;5010390;28;20044;-80
2023/06/02 11:56:35;;;;;;;14.40;3.08;;;23.00;73.70;;;;;;5009847;28;20034;-81
2023/06/02 11:59:01;;;;;;;17.88;3.22;;;23.80;72.20;;;;;;5007233;28;20032;-79
2023/06/02 12:01:35;;;;;;;25.23;7.70;;;23.90;70.10;;;;;;5010377;28;20501;-81
2023/06/02 12:04:06;;;;;;;52.80;19.23;;;23.30;71.00;;;;;;5010459;28;20385;-81
2023/06/02 12:06:40;;;;;;;14.20;4.38;;;23.80;70.50;;;;;;5014069;28;20557;-80
2023/06/02 12:09:12;;;;;;;13.60;3.65;;;23.90;70.30;;;;;;5018408;28;20036;-80
2023/06/02 12:11:38;;;;;;;12.93;4.03;;;23.70;69.80;;;;;;5013084;28;20390;-80
2023/06/02 12:14:06;;;;;;;12.95;2.97;;;23.50;70.20;;;;;;5009325;28;20052;-80
2023/06/02 12:16:34;;;;;;;10.02;3.53;;;23.20;70.70;;;;;;5011033;28;20076;-80
2023/06/02 12:19:19;;;;;;;10.80;3.42;;;22.90;71.00;;;;;;5011361;28;20558;-80
2023/06/02 12:21:46;;;;;;;13.02;3.47;;;22.60;71.50;;;;;;5006614;28;20394;-80
2023/06/02 12:24:28;;;;;;;6.50;3.13;;;22.40;72.70;;;;;;5009201;28;20597;-80
2023/06/02 12:26:54;;;;;;;18.00;4.32;;;22.70;73.10;;;;;;5014360;28;20026;-81
2023/06/02 12:29:20;;;;;;;12.05;3.88;;;22.90;73.10;;;;;;5013129;28;20327;-80
2023/06/02 12:31:45;;;;;;;13.48;3.78;;;23.30;71.30;;;;;;5008165;28;20031;-80
2023/06/02 12:34:13;;;;;;;14.38;3.85;;;23.40;71.70;;;;;;5009685;28;20378;-78
2023/06/02 12:36:39;;;;;;;17.27;4.13;;;23.30;71.10;;;;;;5014972;28;20095;-80
2023/06/02 12:39:05;;;;;;;11.20;3.55;;;23.00;71.50;;;;;;5009150;28;20041;-80
2023/06/02 12:41:31;;;;;;;15.23;4.00;;;22.80;72.30;;;;;;5011183;28;20024;-81